createdAt,value
2022-12-01T00:03:56.858Z,5.35
2022-12-01T00:09:09.783Z,4.20
2022-12-01T00:14:03.821Z,4.82
2022-12-01T00:18:57.753Z,5.22
2022-12-01T00:23:53.679Z,4.65
2022-12-01T00:29:10.340Z,4.63
2022-12-01T00:34:08.117Z,4.55
2022-12-01T00:39:04.942Z,4.38
2022-12-01T00:43:58.341Z,4.80
2022-12-01T00:48:52.141Z,4.32
2022-12-01T00:53:46.909Z,4.63
2022-12-01T00:58:41.248Z,4.65
2022-12-01T01:03:35.701Z,4.53
2022-12-01T01:08:29.857Z,4.53
2022-12-01T01:13:23.939Z,3.90
2022-12-01T01:18:17.069Z,4.75
2022-12-01T01:23:10.800Z,4.82
2022-12-01T01:28:04.622Z,4.22
2022-12-01T01:32:58.123Z,4.07
2022-12-01T01:37:53.199Z,4.20
2022-12-01T01:42:46.911Z,4.10
2022-12-01T01:47:42.645Z,4.60
2022-12-01T01:52:41.764Z,4.10
2022-12-01T01:57:35.871Z,3.60
2022-12-01T02:02:29.781Z,4.38
2022-12-01T02:07:27.311Z,4.30
2022-12-01T02:12:29.678Z,4.05
2022-12-01T02:17:42.129Z,4.07
2022-12-01T02:23:02.553Z,4.20
2022-12-01T02:28:14.576Z,4.13
2022-12-01T02:33:24.278Z,3.65
2022-12-01T02:38:24.978Z,4.00
2022-12-01T02:43:30.721Z,3.95
2022-12-01T02:48:37.042Z,4.45
2022-12-01T02:53:31.481Z,4.32
2022-12-01T02:58:25.196Z,3.92
2022-12-01T03:03:56.335Z,3.92
2022-12-01T03:09:04.112Z,3.58
2022-12-01T03:14:02.222Z,3.70
2022-12-01T03:19:17.945Z,3.97
2022-12-01T03:24:16.053Z,3.90
2022-12-01T03:29:30.901Z,4.32
2022-12-01T03:34:57.062Z,4.13
2022-12-01T03:40:00.634Z,3.72
2022-12-01T03:45:01.285Z,3.92
2022-12-01T03:49:55.793Z,3.47
2022-12-01T03:55:03.533Z,4.15
2022-12-01T03:59:57.244Z,3.85
2022-12-01T04:04:51.154Z,3.88
2022-12-01T04:09:45.128Z,4.13
2022-12-01T04:14:38.794Z,3.75
2022-12-01T04:19:32.857Z,4.25
2022-12-01T04:24:26.617Z,4.25
2022-12-01T04:29:21.106Z,3.65
2022-12-01T04:34:14.080Z,4.30
2022-12-01T04:39:08.176Z,3.45
2022-12-01T04:44:01.455Z,3.60
2022-12-01T04:48:54.948Z,3.65
2022-12-01T04:53:49.262Z,3.90
2022-12-01T04:58:43.279Z,3.80
2022-12-01T05:03:41.262Z,3.90
2022-12-01T05:08:35.225Z,3.55
2022-12-01T05:13:28.599Z,3.95
2022-12-01T05:18:23.079Z,3.92
2022-12-01T05:23:17.414Z,3.40
2022-12-01T05:28:11.214Z,3.80
2022-12-01T05:33:05.559Z,3.67
2022-12-01T05:38:03.264Z,4.00
2022-12-01T05:43:00.163Z,4.20
2022-12-01T05:48:00.621Z,3.92
2022-12-01T05:52:53.781Z,3.83
2022-12-01T05:57:48.000Z,3.80
2022-12-01T06:02:42.707Z,4.25
2022-12-01T06:07:36.600Z,3.85
2022-12-01T06:12:29.794Z,4.40
2022-12-01T06:17:24.118Z,3.67
2022-12-01T06:22:17.671Z,4.10
2022-12-01T06:27:10.294Z,4.88
2022-12-01T06:32:03.918Z,5.05
2022-12-01T06:36:57.200Z,5.65
2022-12-01T06:41:50.306Z,5.90
2022-12-01T06:46:43.723Z,6.40
2022-12-01T06:51:36.710Z,6.85
2022-12-01T06:56:30.678Z,6.22
2022-12-01T07:01:24.488Z,6.60
2022-12-01T07:06:18.752Z,16.05
2022-12-01T07:11:15.409Z,17.30
2022-12-01T07:16:09.927Z,17.38
2022-12-01T07:21:04.764Z,18.60
2022-12-01T07:26:08.275Z,17.70
2022-12-01T07:31:13.117Z,19.55
2022-12-01T07:36:08.691Z,18.05
2022-12-01T07:41:22.492Z,15.93
2022-12-01T07:46:23.504Z,19.85
2022-12-01T07:56:11.101Z,18.40
2022-12-01T08:01:12.257Z,19.85
2022-12-01T08:06:07.384Z,18.90
2022-12-01T08:11:03.737Z,14.63
2022-12-01T08:15:57.512Z,13.05
2022-12-01T08:20:51.937Z,12.95
2022-12-01T08:25:45.543Z,10.82
2022-12-01T08:30:39.193Z,10.85
2022-12-01T08:35:34.638Z,9.90
2022-12-01T08:40:28.067Z,8.82
2022-12-01T08:45:21.209Z,7.93
2022-12-01T08:50:15.268Z,7.47
2022-12-01T08:55:08.890Z,7.07
2022-12-01T09:00:03.353Z,6.32
2022-12-01T09:04:57.358Z,5.78
2022-12-01T09:09:51.415Z,6.55
2022-12-01T09:14:50.037Z,6.43
2022-12-01T09:19:45.008Z,5.70
2022-12-01T09:24:39.425Z,5.88
2022-12-01T09:29:33.301Z,5.60
2022-12-01T09:34:27.374Z,5.68
2022-12-01T09:39:21.414Z,5.35
2022-12-01T09:44:33.465Z,5.65
2022-12-01T09:49:51.137Z,5.35
2022-12-01T09:54:44.233Z,5.55
2022-12-01T09:59:42.221Z,6.00
2022-12-01T10:04:40.331Z,4.80
2022-12-01T10:09:36.609Z,5.65
2022-12-01T10:14:34.215Z,5.18
2022-12-01T10:19:33.092Z,5.38
2022-12-01T10:24:37.591Z,5.32
2022-12-01T10:29:48.018Z,5.80
2022-12-01T10:34:47.378Z,4.57
2022-12-01T10:39:44.031Z,4.80
2022-12-01T10:44:37.905Z,5.10
2022-12-01T10:49:42.001Z,5.68
2022-12-01T10:54:41.246Z,5.50
2022-12-01T10:59:55.889Z,4.97
2022-12-01T11:04:55.279Z,5.25
2022-12-01T11:09:59.010Z,5.28
2022-12-01T11:14:54.902Z,5.28
2022-12-01T11:19:49.147Z,5.03
2022-12-01T11:24:57.449Z,5.10
2022-12-01T11:29:55.407Z,4.75
2022-12-01T11:34:57.617Z,4.53
2022-12-01T11:39:52.262Z,4.95
2022-12-01T11:45:11.475Z,4.63
2022-12-01T11:50:25.346Z,5.03
2022-12-01T11:55:18.299Z,5.93
2022-12-01T12:00:14.855Z,5.55
2022-12-01T12:06:17.701Z,6.18
2022-12-01T12:11:30.545Z,5.70
2022-12-01T12:16:28.726Z,5.88
2022-12-01T12:21:58.108Z,5.93
2022-12-01T12:27:34.168Z,6.45
2022-12-01T12:32:52.272Z,5.75
2022-12-01T12:38:09.175Z,5.72
2022-12-01T12:43:25.037Z,5.80
2022-12-01T12:48:23.965Z,5.35
2022-12-01T12:53:23.728Z,5.82
2022-12-01T12:58:19.576Z,5.15
2022-12-01T13:04:07.718Z,5.23
2022-12-01T13:09:12.021Z,5.60
2022-12-01T13:14:16.048Z,5.60
2022-12-01T13:19:27.668Z,5.47
2022-12-01T13:24:24.376Z,5.45
2022-12-01T13:29:22.114Z,5.47
2022-12-01T13:34:32.878Z,5.43
2022-12-01T13:39:29.107Z,5.72
2022-12-01T13:44:33.549Z,5.32
2022-12-01T13:49:58.905Z,5.60
2022-12-01T13:55:10.575Z,5.55
2022-12-01T14:00:21.500Z,5.22
2022-12-01T14:05:24.045Z,5.45
2022-12-01T14:10:30.745Z,4.97
2022-12-01T14:15:43.162Z,5.55
2022-12-01T14:20:46.342Z,6.05
2022-12-01T14:25:40.750Z,5.55
2022-12-01T14:30:40.076Z,5.43
2022-12-01T14:35:35.247Z,5.70
2022-12-01T14:40:31.320Z,5.45
2022-12-01T14:46:06.931Z,5.32
2022-12-01T14:51:15.859Z,5.70
2022-12-01T14:56:13.074Z,5.93
2022-12-01T15:01:45.767Z,5.15
2022-12-01T15:07:18.497Z,5.18
2022-12-01T15:12:40.878Z,5.55
2022-12-01T15:17:37.748Z,5.50
2022-12-01T15:22:33.193Z,4.72
2022-12-01T15:27:31.825Z,5.00
2022-12-01T15:32:27.730Z,5.50
2022-12-01T15:37:24.722Z,5.40
2022-12-01T15:42:26.865Z,4.70
2022-12-01T15:47:56.271Z,5.88
2022-12-01T15:52:51.206Z,4.72
2022-12-01T15:57:47.470Z,5.43
2022-12-01T16:02:41.148Z,5.10
2022-12-01T16:08:11.300Z,5.25
2022-12-01T16:12:50.269Z,4.90
2022-12-01T16:17:50.475Z,5.07
2022-12-01T16:22:47.734Z,5.47
2022-12-01T16:27:41.954Z,5.57
2022-12-01T16:32:37.327Z,5.10
2022-12-01T16:37:30.567Z,4.97
2022-12-01T16:42:24.399Z,4.85
2022-12-01T16:47:22.534Z,4.63
2022-12-01T16:52:42.985Z,4.85
2022-12-01T16:57:29.936Z,5.28
2022-12-01T17:02:22.799Z,4.80
2022-12-01T17:07:16.423Z,4.70
2022-12-01T17:12:14.261Z,4.80
2022-12-01T17:17:07.970Z,5.05
2022-12-01T17:22:02.095Z,4.72
2022-12-01T17:26:55.876Z,4.75
2022-12-01T17:31:50.456Z,5.35
2022-12-01T17:36:42.950Z,4.70
2022-12-01T17:41:36.733Z,4.82
2022-12-01T17:46:30.643Z,4.63
2022-12-01T17:51:24.879Z,5.32
2022-12-01T17:56:18.034Z,5.63
2022-12-01T18:01:31.661Z,5.28
2022-12-01T18:06:26.030Z,7.28
2022-12-01T18:11:20.080Z,8.40
2022-12-01T18:16:17.186Z,10.63
2022-12-01T18:21:17.681Z,11.23
2022-12-01T18:26:16.098Z,12.38
2022-12-01T18:31:12.532Z,13.73
2022-12-01T18:36:27.968Z,14.93
2022-12-01T18:41:24.972Z,15.18
2022-12-01T18:46:19.929Z,15.10
2022-12-01T18:51:13.565Z,15.55
2022-12-01T18:56:11.687Z,13.90
2022-12-01T19:01:21.471Z,13.10
2022-12-01T19:06:15.101Z,13.10
2022-12-01T19:11:09.137Z,12.70
2022-12-01T19:16:11.612Z,11.85
2022-12-01T19:21:06.993Z,12.00
2022-12-01T19:25:59.697Z,24.85
2022-12-01T19:30:52.607Z,26.55
2022-12-01T19:35:45.118Z,27.65
2022-12-01T19:40:39.421Z,28.67
2022-12-01T19:45:33.488Z,29.77
2022-12-01T19:50:27.480Z,21.50
2022-12-01T19:55:20.832Z,19.95
2022-12-01T20:00:16.573Z,20.40
2022-12-01T20:05:10.910Z,19.98
2022-12-01T20:10:05.113Z,20.67
2022-12-01T20:14:58.449Z,21.52
2022-12-01T20:19:51.736Z,19.70
2022-12-01T20:24:46.270Z,18.85
2022-12-01T20:29:40.113Z,20.40
2022-12-01T20:34:38.135Z,18.35
2022-12-01T20:39:36.113Z,18.17
2022-12-01T20:44:30.495Z,16.55
2022-12-01T20:49:24.302Z,16.88
2022-12-01T20:54:28.298Z,15.73
2022-12-01T20:59:23.668Z,15.50
2022-12-01T21:04:17.252Z,14.05
2022-12-01T21:09:10.303Z,14.30
2022-12-01T21:14:05.276Z,13.30
2022-12-01T21:19:11.786Z,12.57
2022-12-01T21:24:20.879Z,11.90
2022-12-01T21:29:22.399Z,13.00
2022-12-01T21:34:27.279Z,12.68
2022-12-01T21:39:23.968Z,11.75
2022-12-01T21:44:21.039Z,12.80
2022-12-01T21:49:15.459Z,11.15
2022-12-01T21:54:16.435Z,11.70
2022-12-01T21:59:16.175Z,10.70
2022-12-01T22:04:19.441Z,11.13
2022-12-01T22:09:35.538Z,11.15
2022-12-01T22:14:36.825Z,10.95
2022-12-01T22:19:42.766Z,9.90
2022-12-01T22:24:48.680Z,10.20
2022-12-01T22:29:46.067Z,10.60
2022-12-01T22:34:38.972Z,10.48
2022-12-01T22:39:36.165Z,10.43
2022-12-01T22:44:32.151Z,9.52
2022-12-01T22:49:25.692Z,10.43
2022-12-01T22:54:19.186Z,9.77
2022-12-01T22:59:23.039Z,10.20
2022-12-01T23:04:25.661Z,9.35
2022-12-01T23:09:18.865Z,9.40
2022-12-01T23:14:20.282Z,10.27
2022-12-01T23:19:14.766Z,10.55
2022-12-01T23:24:10.997Z,9.07
2022-12-01T23:29:04.282Z,9.52
2022-12-01T23:33:57.633Z,9.38
2022-12-01T23:38:55.771Z,9.15
2022-12-01T23:43:49.757Z,10.00
2022-12-01T23:48:49.811Z,9.43
2022-12-01T23:53:44.031Z,9.75
2022-12-01T23:58:37.378Z,9.10
